Time;durP1;ratioP1;P1;durP2;ratioP2;P2;SDS_P1;SDS_P2;PMS_P1;PMS_P2;Temp;Humidity;BMP_temperature;BMP_pressure;BME280_temperature;BME280_humidity;BME280_pressure;Samples;Min_cycle;Max_cycle;Signal;HPM_P1;HPM_P2
2022/05/29 00:01:12;;;;;;;7.20;1.52;;;;;;;;;;5030130;28;20074;-75
2022/05/29 00:03:38;;;;;;;5.70;1.70;;;;;;;;;;5031454;28;20403;-76
2022/05/29 00:06:05;;;;;;;3.85;1.55;;;;;;;;;;5031601;28;20061;-75
2022/05/29 00:08:32;;;;;;;4.63;1.20;;;;;;;;;;5030959;28;20030;-75
2022/05/29 00:10:59;;;;;;;6.78;1.50;;;;;;;;;;5031661;28;20033;-75
2022/05/29 00:13:25;;;;;;;8.07;1.60;;;;;;;;;;5030887;28;20025;-75
2022/05/29 00:15:50;;;;;;;4.50;1.50;;;;;;;;;;5028180;28;20029;-75
2022/05/29 00:18:16;;;;;;;6.72;1.90;;;;;;;;;;5029134;28;20506;-76
2022/05/29 00:20:45;;;;;;;8.32;1.60;;;;;;;;;;5031024;28;20029;-75
2022/05/29 00:23:10;;;;;;;3.45;1.35;;;;;;;;;;5031253;28;20112;-77
2022/05/29 00:25:35;;;;;;;7.75;1.40;;;;;;;;;;5031070;28;20159;-76
2022/05/29 00:28:01;;;;;;;8.45;1.40;;;;;;;;;;5030726;28;20403;-74
2022/05/29 00:30:26;;;;;;;4.78;1.23;;;;;;;;;;5029821;28;20383;-75
2022/05/29 00:32:51;;;;;;;3.70;1.45;;;;;;;;;;5030007;28;20035;-75
2022/05/29 00:35:17;;;;;;;6.20;1.40;;;;;;;;;;5013576;28;20060;-76
2022/05/29 00:37:42;;;;;;;5.72;1.65;;;;;;;;;;5011020;28;20435;-76
2022/05/29 00:40:34;;;;;;;5.70;1.50;;;;;;;;;;5010898;28;20574;-75
2022/05/29 00:43:00;;;;;;;5.65;1.40;;;;;;;;;;5012224;28;20663;-75
2022/05/29 00:45:28;;;;;;;4.20;1.42;;;;;;;;;;5030442;28;20033;-75
2022/05/29 00:47:53;;;;;;;5.00;1.83;;;;;;;;;;5030234;28;20025;-75
2022/05/29 00:50:22;;;;;;;9.15;1.70;;;;;;;;;;5029198;28;20052;-75
2022/05/29 00:52:50;;;;;;;2.83;1.15;;;;;;;;;;5010996;28;20502;-75
2022/05/29 00:55:18;;;;;;;10.10;1.83;;;;;;;;;;5010886;28;20152;-75
2022/05/29 00:57:46;;;;;;;5.85;1.75;;;;;;;;;;5022351;28;20562;-75
2022/05/29 01:00:25;;;;;;;5.68;1.88;;;;;;;;;;5029486;28;20441;-75
2022/05/29 01:02:51;;;;;;;3.70;1.58;;;;;;;;;;5025733;28;20476;-76
2022/05/29 01:05:18;;;;;;;5.20;1.52;;;;;;;;;;5011253;28;20065;-76
2022/05/29 01:07:51;;;;;;;5.72;1.35;;;;;;;;;;5011507;28;20026;-75
2022/05/29 01:10:16;;;;;;;6.20;1.70;;;;;;;;;;5010418;28;20093;-76
2022/05/29 01:13:03;;;;;;;6.85;1.85;;;;;;;;;;5030094;28;20116;-76
2022/05/29 01:15:54;;;;;;;8.30;1.88;;;;;;;;;;5030890;28;20025;-77
2022/05/29 01:18:26;;;;;;;6.57;1.60;;;;;;;;;;5030243;28;20483;-76
2022/05/29 01:21:23;;;;;;;7.00;2.53;;;;;;;;;;5030421;28;20029;-77
2022/05/29 01:24:11;;;;;;;5.25;1.50;;;;;;;;;;5017147;28;20033;-78
2022/05/29 01:26:58;;;;;;;5.97;1.48;;;;;;;;;;5023520;28;20033;-78
2022/05/29 01:29:33;;;;;;;4.10;1.63;;;;;;;;;;5027538;28;20368;-76
2022/05/29 01:32:21;;;;;;;3.65;1.30;;;;;;;;;;5029768;28;20072;-76
2022/05/29 01:34:53;;;;;;;5.07;1.73;;;;;;;;;;5030254;28;20051;-75
2022/05/29 01:37:31;;;;;;;4.65;1.67;;;;;;;;;;5028898;28;20513;-76
2022/05/29 01:40:16;;;;;;;7.63;1.40;;;;;;;;;;5030346;28;20082;-76
2022/05/29 01:42:41;;;;;;;5.50;1.85;;;;;;;;;;5027961;28;20072;-77
2022/05/29 01:45:53;;;;;;;6.78;1.95;;;;;;;;;;5029692;28;20037;-77
2022/05/29 01:48:40;;;;;;;5.93;1.40;;;;;;;;;;5031468;28;20064;-77
2022/05/29 01:51:13;;;;;;;3.47;1.30;;;;;;;;;;5030669;28;20119;-77
2022/05/29 01:53:42;;;;;;;8.35;1.48;;;;;;;;;;5031279;28;20013;-77
2022/05/29 01:56:17;;;;;;;4.85;1.63;;;;;;;;;;5029687;28;20105;-77
2022/05/29 01:58:49;;;;;;;6.90;1.63;;;;;;;;;;5017756;28;20037;-76
2022/05/29 02:01:15;;;;;;;5.57;1.75;;;;;;;;;;5011466;28;20391;-79
2022/05/29 02:03:48;;;;;;;3.90;1.52;;;;;;;;;;5011034;28;20022;-78
2022/05/29 02:06:27;;;;;;;6.78;1.80;;;;;;;;;;5066385;28;20952;-75
2022/05/29 02:09:03;;;;;;;6.10;1.70;;;;;;;;;;5065243;28;20041;-74
2022/05/29 02:11:31;;;;;;;5.90;1.60;;;;;;;;;;5064685;28;20040;-74
2022/05/29 02:13:56;;;;;;;5.90;1.65;;;;;;;;;;5065451;28;20055;-74
2022/05/29 02:16:43;;;;;;;2.22;1.20;;;;;;;;;;5055462;28;20389;-76
2022/05/29 02:19:15;;;;;;;6.60;1.90;;;;;;;;;;5045233;28;20029;-77
2022/05/29 02:21:54;;;;;;;6.00;1.42;;;;;;;;;;5045535;28;20021;-76
2022/05/29 02:24:24;;;;;;;3.83;1.42;;;;;;;;;;5053524;28;20060;-77
2022/05/29 02:27:14;;;;;;;5.25;1.50;;;;;;;;;;5065081;28;20037;-78
2022/05/29 02:29:40;;;;;;;4.85;1.40;;;;;;;;;;5065135;28;20025;-76
2022/05/29 02:32:05;;;;;;;5.32;1.42;;;;;;;;;;5064953;28;20029;-75
2022/05/29 02:34:46;;;;;;;3.50;1.45;;;;;;;;;;5058874;28;20382;-75
2022/05/29 02:37:34;;;;;;;6.22;1.60;;;;;;;;;;5060572;28;20032;-75
2022/05/29 02:40:05;;;;;;;5.07;1.50;;;;;;;;;;5064864;28;20090;-77
2022/05/29 02:42:40;;;;;;;5.72;1.48;;;;;;;;;;5063660;28;20084;-76
2022/05/29 02:45:15;;;;;;;6.38;1.98;;;;;;;;;;5064789;28;20407;-76
2022/05/29 02:47:49;;;;;;;4.50;1.60;;;;;;;;;;5063474;28;20509;-76
2022/05/29 02:50:42;;;;;;;5.32;1.50;;;;;;;;;;5062934;28;20032;-75
2022/05/29 02:53:11;;;;;;;3.22;1.25;;;;;;;;;;5063315;28;20070;-76
2022/05/29 02:55:37;;;;;;;3.78;1.60;;;;;;;;;;5064470;28;20032;-75
2022/05/29 02:58:08;;;;;;;7.38;1.70;;;;;;;;;;5064211;28;20024;-75
2022/05/29 03:00:46;;;;;;;4.72;1.40;;;;;;;;;;5064484;28;20094;-76
2022/05/29 03:03:26;;;;;;;4.32;1.98;;;;;;;;;;5062459;28;20390;-75
2022/05/29 03:06:06;;;;;;;7.20;1.60;;;;;;;;;;5048866;28;20029;-75
2022/05/29 03:08:54;;;;;;;5.18;1.45;;;;;;;;;;5063964;28;20036;-75
2022/05/29 03:11:38;;;;;;;6.93;1.63;;;;;;;;;;5064280;28;20120;-75
2022/05/29 03:14:08;;;;;;;5.70;1.50;;;;;;;;;;5064291;28;20470;-75
2022/05/29 03:16:41;;;;;;;4.65;1.58;;;;;;;;;;5049216;28;20049;-76
2022/05/29 03:19:48;;;;;;;4.72;1.70;;;;;;;;;;5050590;28;20503;-75
2022/05/29 03:22:23;;;;;;;4.90;1.60;;;;;;;;;;5049570;28;20024;-76
2022/05/29 03:24:54;;;;;;;6.30;1.83;;;;;;;;;;5036921;28;20021;-76
2022/05/29 03:27:30;;;;;;;3.85;1.55;;;;;;;;;;5030972;28;20033;-74
2022/05/29 03:30:13;;;;;;;5.13;1.70;;;;;;;;;;5034225;28;20111;-76
2022/05/29 03:32:38;;;;;;;5.53;1.80;;;;;;;;;;5042759;28;20483;-77
2022/05/29 03:35:19;;;;;;;6.47;1.63;;;;;;;;;;5049362;28;20028;-76
2022/05/29 03:37:45;;;;;;;5.32;1.48;;;;;;;;;;5048989;28;20057;-75
2022/05/29 03:40:11;;;;;;;4.65;1.60;;;;;;;;;;5049898;28;20057;-77
2022/05/29 03:42:36;;;;;;;6.43;1.92;;;;;;;;;;5030807;28;20021;-75
2022/05/29 03:45:02;;;;;;;8.18;1.70;;;;;;;;;;5041503;28;20079;-77
2022/05/29 03:47:28;;;;;;;6.80;1.70;;;;;;;;;;5050222;28;20478;-76
2022/05/29 03:49:53;;;;;;;7.15;1.52;;;;;;;;;;5050243;28;20150;-75
2022/05/29 03:52:18;;;;;;;6.28;2.10;;;;;;;;;;5048995;28;20033;-76
2022/05/29 03:54:44;;;;;;;4.68;1.80;;;;;;;;;;5050105;28;20035;-77
2022/05/29 03:57:10;;;;;;;5.72;1.75;;;;;;;;;;5049698;28;20605;-77
2022/05/29 03:59:35;;;;;;;5.75;1.60;;;;;;;;;;5037735;28;20033;-76
2022/05/29 04:02:00;;;;;;;4.70;1.90;;;;;;;;;;5049185;28;20074;-76
2022/05/29 04:04:26;;;;;;;6.90;1.80;;;;;;;;;;5049741;28;20100;-76
2022/05/29 04:06:51;;;;;;;3.17;1.70;;;;;;;;;;5050003;28;20502;-75
2022/05/29 04:12:03;;;;;;;5.03;1.90;;;;;;;;;;5050403;28;20039;-77
2022/05/29 04:14:30;;;;;;;6.22;1.88;;;;;;;;;;5041063;28;20315;-78
2022/05/29 04:16:55;;;;;;;5.72;1.92;;;;;;;;;;5049948;28;20035;-76
2022/05/29 04:19:21;;;;;;;4.72;1.77;;;;;;;;;;5049493;28;20334;-75
2022/05/29 04:21:46;;;;;;;4.88;2.10;;;;;;;;;;5050409;28;20028;-76
2022/05/29 04:24:12;;;;;;;7.57;2.08;;;;;;;;;;5055054;28;20024;-76
2022/05/29 04:26:38;;;;;;;7.13;2.00;;;;;;;;;;5047700;28;20044;-76
2022/05/29 04:29:05;;;;;;;5.10;1.75;;;;;;;;;;5044930;28;20059;-74
2022/05/29 04:31:33;;;;;;;4.72;2.00;;;;;;;;;;5058968;28;20088;-76
2022/05/29 04:33:59;;;;;;;5.65;2.03;;;;;;;;;;5041607;28;20029;-76
2022/05/29 04:36:25;;;;;;;6.15;1.92;;;;;;;;;;5037245;28;20029;-75
2022/05/29 04:38:52;;;;;;;4.70;2.13;;;;;;;;;;5029438;28;20040;-77
2022/05/29 04:41:19;;;;;;;5.65;2.55;;;;;;;;;;5028995;28;20044;-76
2022/05/29 04:43:45;;;;;;;8.23;2.40;;;;;;;;;;5041383;28;20524;-75
2022/05/29 04:46:11;;;;;;;6.63;2.22;;;;;;;;;;5049159;28;20033;-76
2022/05/29 04:48:36;;;;;;;8.05;2.03;;;;;;;;;;5045396;28;20033;-78
2022/05/29 04:51:04;;;;;;;7.13;2.78;;;;;;;;;;5049079;28;20024;-77
2022/05/29 04:53:30;;;;;;;4.97;2.13;;;;;;;;;;5049101;28;20029;-75
2022/05/29 04:55:57;;;;;;;3.58;2.03;;;;;;;;;;5049060;28;20029;-75
2022/05/29 04:58:24;;;;;;;5.97;2.22;;;;;;;;;;5048882;28;20029;-78
2022/05/29 05:00:54;;;;;;;10.00;2.53;;;;;;;;;;5048936;28;20033;-75
2022/05/29 05:03:19;;;;;;;5.32;2.10;;;;;;;;;;5041178;28;20025;-74
2022/05/29 05:05:46;;;;;;;4.72;1.88;;;;;;;;;;5043502;28;20360;-76
2022/05/29 05:08:12;;;;;;;4.40;1.92;;;;;;;;;;5028771;28;20033;-75
2022/05/29 05:10:40;;;;;;;6.53;2.40;;;;;;;;;;5029097;28;20156;-77
2022/05/29 05:13:05;;;;;;;4.50;1.90;;;;;;;;;;5047209;28;20033;-77
2022/05/29 05:15:30;;;;;;;4.15;1.95;;;;;;;;;;5048866;28;20017;-76
2022/05/29 05:17:56;;;;;;;9.40;2.28;;;;;;;;;;5042217;28;20044;-75
2022/05/29 05:20:21;;;;;;;4.65;2.13;;;;;;;;;;5040694;28;20469;-77
2022/05/29 05:22:46;;;;;;;7.05;2.00;;;;;;;;;;5043163;28;20025;-75
2022/05/29 05:25:12;;;;;;;8.32;2.15;;;;;;;;;;5028702;28;20372;-75
2022/05/29 05:27:37;;;;;;;6.32;2.67;;;;;;;;;;5028550;28;20447;-76
2022/05/29 05:30:04;;;;;;;3.70;1.90;;;;;;;;;;5031845;28;20473;-75
2022/05/29 05:32:29;;;;;;;4.90;2.47;;;;;;;;;;5048306;28;20110;-76
2022/05/29 05:34:54;;;;;;;4.45;2.70;;;;;;;;;;5047337;28;20459;-75
2022/05/29 05:37:20;;;;;;;4.45;2.55;;;;;;;;;;5048346;28;20041;-76
2022/05/29 05:39:45;;;;;;;8.70;4.07;;;;;;;;;;5042686;28;20028;-76
2022/05/29 05:42:10;;;;;;;5.75;2.60;;;;;;;;;;5028644;28;20029;-77
2022/05/29 05:44:36;;;;;;;5.60;2.72;;;;;;;;;;5030479;28;20033;-77
2022/05/29 05:47:01;;;;;;;6.55;3.05;;;;;;;;;;5039951;28;20032;-76
2022/05/29 05:49:26;;;;;;;4.80;3.20;;;;;;;;;;5045199;28;20165;-76
2022/05/29 05:51:54;;;;;;;8.23;3.25;;;;;;;;;;5047627;28;20090;-76
2022/05/29 05:54:19;;;;;;;4.57;2.70;;;;;;;;;;5042981;28;20108;-76
2022/05/29 05:56:47;;;;;;;7.38;3.55;;;;;;;;;;5048216;28;20588;-78
2022/05/29 05:59:14;;;;;;;9.68;4.78;;;;;;;;;;5037587;28;20122;-77
2022/05/29 06:01:40;;;;;;;9.52;4.65;;;;;;;;;;5041798;28;20137;-76
2022/05/29 06:04:06;;;;;;;9.98;6.53;;;;;;;;;;5039765;28;20013;-78
2022/05/29 06:06:32;;;;;;;7.53;3.80;;;;;;;;;;5045379;28;20047;-78
2022/05/29 06:08:57;;;;;;;6.50;3.40;;;;;;;;;;5043518;28;20040;-76
2022/05/29 06:11:24;;;;;;;7.40;4.28;;;;;;;;;;5047411;28;20078;-77
2022/05/29 06:13:49;;;;;;;6.60;3.30;;;;;;;;;;5045563;28;20449;-77
2022/05/29 06:16:15;;;;;;;4.30;3.03;;;;;;;;;;5042089;28;20025;-76
2022/05/29 06:18:40;;;;;;;5.40;3.17;;;;;;;;;;5041216;28;20029;-78
2022/05/29 06:21:06;;;;;;;6.55;2.85;;;;;;;;;;5041859;28;20386;-77
2022/05/29 06:23:34;;;;;;;6.28;2.83;;;;;;;;;;5046350;28;20032;-77
2022/05/29 06:26:04;;;;;;;5.25;3.05;;;;;;;;;;5042886;28;20268;-77
2022/05/29 06:28:29;;;;;;;6.90;3.10;;;;;;;;;;5042364;28;20064;-77
2022/05/29 06:30:55;;;;;;;6.25;3.28;;;;;;;;;;5041145;28;20475;-79
2022/05/29 06:33:20;;;;;;;7.40;3.55;;;;;;;;;;5040808;28;20399;-76
2022/05/29 06:35:45;;;;;;;4.43;3.05;;;;;;;;;;5046597;28;20056;-77
2022/05/29 06:38:11;;;;;;;7.22;3.22;;;;;;;;;;5041865;28;20025;-75
2022/05/29 06:40:38;;;;;;;5.40;3.08;;;;;;;;;;5058188;28;20025;-76
2022/05/29 06:43:03;;;;;;;5.25;2.95;;;;;;;;;;5045214;28;20360;-74
2022/05/29 06:45:29;;;;;;;6.72;2.88;;;;;;;;;;5032104;28;20021;-75
2022/05/29 06:47:54;;;;;;;6.85;2.75;;;;;;;;;;5045699;28;20054;-74
2022/05/29 06:50:20;;;;;;;5.80;2.83;;;;;;;;;;5047792;28;20020;-75
2022/05/29 06:52:45;;;;;;;6.38;3.03;;;;;;;;;;5048932;28;20467;-75
2022/05/29 06:55:11;;;;;;;5.22;2.88;;;;;;;;;;5050426;28;20132;-80
2022/05/29 06:57:36;;;;;;;7.15;2.80;;;;;;;;;;5045085;28;20029;-75
2022/05/29 07:08:41;;;;;;;6.88;3.00;;;;;;;;;;5028097;28;20059;-78
2022/05/29 07:11:15;;;;;;;5.55;3.50;;;;;;;;;;5038673;28;20021;-78
2022/05/29 07:13:41;;;;;;;4.88;3.20;;;;;;;;;;5043448;28;20495;-75
2022/05/29 07:16:07;;;;;;;5.40;2.80;;;;;;;;;;5049164;28;20071;-76
2022/05/29 07:18:32;;;;;;;8.73;3.45;;;;;;;;;;5047440;28;20098;-79
2022/05/29 07:21:02;;;;;;;4.90;2.90;;;;;;;;;;5046797;28;20033;-76
2022/05/29 07:23:28;;;;;;;6.85;3.25;;;;;;;;;;5044171;28;20318;-75
2022/05/29 07:25:54;;;;;;;6.18;2.85;;;;;;;;;;5046753;28;20439;-78
2022/05/29 07:28:20;;;;;;;8.88;3.00;;;;;;;;;;5033232;28;20034;-75
2022/05/29 07:30:48;;;;;;;7.75;3.47;;;;;;;;;;5040906;28;20443;-75
2022/05/29 07:33:14;;;;;;;6.13;2.90;;;;;;;;;;5041055;28;20052;-78
2022/05/29 07:35:40;;;;;;;4.40;2.30;;;;;;;;;;5033506;28;20120;-76
2022/05/29 07:38:05;;;;;;;2.22;1.88;;;;;;;;;;5031071;28;20021;-76
2022/05/29 07:40:30;;;;;;;5.15;2.13;;;;;;;;;;5032066;28;20033;-72
2022/05/29 07:45:40;;;;;;;5.53;2.28;;;;;;;;;;5029101;28;20271;-76
2022/05/29 07:48:05;;;;;;;5.32;1.88;;;;;;;;;;5031252;28;20492;-76
2022/05/29 07:50:30;;;;;;;5.43;2.10;;;;;;;;;;5025604;28;20467;-75
2022/05/29 07:52:56;;;;;;;3.70;1.73;;;;;;;;;;5028937;28;20541;-72
2022/05/29 07:55:22;;;;;;;3.50;1.77;;;;;;;;;;5045349;28;20021;-75
2022/05/29 07:57:48;;;;;;;5.00;1.75;;;;;;;;;;5049647;28;20029;-75
2022/05/29 08:00:17;;;;;;;3.53;1.75;;;;;;;;;;5050060;28;20394;-76
2022/05/29 08:02:43;;;;;;;5.85;1.70;;;;;;;;;;5047156;28;20040;-75
2022/05/29 08:05:11;;;;;;;3.30;1.40;;;;;;;;;;5050020;28;20029;-77
2022/05/29 08:07:37;;;;;;;2.65;1.50;;;;;;;;;;5044643;28;20115;-74
2022/05/29 08:10:04;;;;;;;2.95;1.70;;;;;;;;;;5039413;28;20041;-77
2022/05/29 08:12:30;;;;;;;3.35;1.60;;;;;;;;;;5044793;28;20033;-76
2022/05/29 08:14:55;;;;;;;5.35;1.90;;;;;;;;;;5050079;28;20406;-74
2022/05/29 08:17:20;;;;;;;6.30;2.03;;;;;;;;;;5076063;22;20033;-74
2022/05/29 08:19:46;;;;;;;4.28;1.95;;;;;;;;;;5058076;28;20029;-74
2022/05/29 08:22:11;;;;;;;6.28;2.03;;;;;;;;;;5068799;28;20036;-76
2022/05/29 08:30:40;;;;;;;5.38;1.88;;;;;;;;;;5065522;28;20113;-77
2022/05/29 08:33:27;;;;;;;3.53;1.80;;;;;;;;;;5068461;28;20039;-76
2022/05/29 08:35:56;;;;;;;2.78;1.55;;;;;;;;;;5068150;28;20040;-77
2022/05/29 08:38:22;;;;;;;3.30;1.67;;;;;;;;;;5047399;28;20781;-78
2022/05/29 08:40:51;;;;;;;4.15;1.83;;;;;;;;;;5074994;28;20036;-77
2022/05/29 08:43:25;;;;;;;3.63;1.55;;;;;;;;;;5068971;28;20024;-75
2022/05/29 08:45:51;;;;;;;4.10;1.60;;;;;;;;;;5069607;28;20085;-73
2022/05/29 08:48:20;;;;;;;2.70;1.30;;;;;;;;;;5057637;28;20032;-76
2022/05/29 08:50:54;;;;;;;2.72;1.63;;;;;;;;;;5056410;28;20119;-74
2022/05/29 08:53:41;;;;;;;2.53;1.40;;;;;;;;;;5058632;28;20112;-78
2022/05/29 08:56:27;;;;;;;2.60;1.50;;;;;;;;;;5065540;28;20025;-77
2022/05/29 08:59:15;;;;;;;2.80;1.45;;;;;;;;;;5056137;28;20581;-76
2022/05/29 09:02:07;;;;;;;3.28;1.50;;;;;;;;;;5063721;28;20033;-76
2022/05/29 09:04:40;;;;;;;2.30;1.15;;;;;;;;;;5036549;28;20032;-75
2022/05/29 09:07:09;;;;;;;3.38;1.50;;;;;;;;;;5061163;28;20116;-77
2022/05/29 09:09:52;;;;;;;4.30;1.95;;;;;;;;;;5068875;28;20039;-77
2022/05/29 09:12:24;;;;;;;3.65;1.55;;;;;;;;;;5062378;28;20056;-77
2022/05/29 09:15:01;;;;;;;2.65;1.55;;;;;;;;;;5066807;28;20060;-76
2022/05/29 09:17:44;;;;;;;4.50;1.80;;;;;;;;;;5065186;28;20235;-77
2022/05/29 09:20:32;;;;;;;2.35;1.50;;;;;;;;;;5068840;28;20062;-75
2022/05/29 09:23:00;;;;;;;3.47;1.60;;;;;;;;;;5069922;28;20059;-74
2022/05/29 09:25:35;;;;;;;6.50;1.60;;;;;;;;;;5054419;28;20441;-78
2022/05/29 09:28:04;;;;;;;5.43;1.65;;;;;;;;;;5068859;28;20028;-78
2022/05/29 09:30:30;;;;;;;3.88;1.60;;;;;;;;;;5069311;28;20090;-77
2022/05/29 09:33:02;;;;;;;3.47;1.67;;;;;;;;;;5069016;28;20032;-76
2022/05/29 09:35:49;;;;;;;3.25;1.73;;;;;;;;;;5070553;28;20016;-77
2022/05/29 09:38:26;;;;;;;2.75;1.65;;;;;;;;;;5070361;28;20029;-76
2022/05/29 09:41:02;;;;;;;3.83;1.33;;;;;;;;;;5066723;28;20490;-77
2022/05/29 09:43:29;;;;;;;2.55;1.48;;;;;;;;;;5058851;28;20418;-77
2022/05/29 09:45:54;;;;;;;5.90;2.05;;;;;;;;;;5066168;28;20351;-77
2022/05/29 09:51:28;;;;;;;2.75;1.60;;;;;;;;;;5066259;28;20059;-78
2022/05/29 09:53:57;;;;;;;2.90;1.52;;;;;;;;;;5052998;28;20028;-77
2022/05/29 09:56:27;;;;;;;4.15;1.58;;;;;;;;;;5064434;28;20084;-78
2022/05/29 09:58:57;;;;;;;3.20;1.60;;;;;;;;;;5068447;28;20481;-77
2022/05/29 10:01:28;;;;;;;3.28;1.63;;;;;;;;;;5073419;28;20524;-78
2022/05/29 10:03:56;;;;;;;1.75;1.25;;;;;;;;;;5070670;28;20032;-77
2022/05/29 10:06:21;;;;;;;3.67;1.30;;;;;;;;;;5058626;28;20033;-76
2022/05/29 10:08:46;;;;;;;2.90;1.23;;;;;;;;;;5065406;28;20029;-74
2022/05/29 10:11:27;;;;;;;1.73;1.30;;;;;;;;;;5063984;28;20284;-77
2022/05/29 10:13:52;;;;;;;2.45;1.70;;;;;;;;;;5050001;28;20108;-76
2022/05/29 10:16:37;;;;;;;2.72;1.35;;;;;;;;;;5067609;28;20116;-76
2022/05/29 10:19:08;;;;;;;2.42;1.45;;;;;;;;;;5061539;28;20037;-75
2022/05/29 10:21:43;;;;;;;3.63;1.33;;;;;;;;;;5068218;28;20025;-77
2022/05/29 10:24:26;;;;;;;2.67;1.40;;;;;;;;;;5060645;28;20029;-76
2022/05/29 10:27:05;;;;;;;2.05;1.17;;;;;;;;;;5059598;28;20042;-77
2022/05/29 10:29:33;;;;;;;3.72;1.50;;;;;;;;;;5050807;28;20098;-76
2022/05/29 10:32:03;;;;;;;1.55;1.27;;;;;;;;;;5070913;28;20031;-76
2022/05/29 10:34:32;;;;;;;3.88;1.30;;;;;;;;;;5073705;28;20048;-78
2022/05/29 10:36:57;;;;;;;2.42;1.38;;;;;;;;;;5071209;28;20021;-76
2022/05/29 10:39:29;;;;;;;3.42;1.30;;;;;;;;;;5071720;28;20040;-75
2022/05/29 10:41:55;;;;;;;1.77;1.00;;;;;;;;;;5068714;28;20090;-75
2022/05/29 10:44:42;;;;;;;3.33;1.20;;;;;;;;;;5067056;28;20030;-76
2022/05/29 10:47:16;;;;;;;2.45;1.30;;;;;;;;;;5065167;28;20035;-74
2022/05/29 10:49:57;;;;;;;2.47;1.13;;;;;;;;;;5061080;28;20501;-77
2022/05/29 10:52:58;;;;;;;2.80;1.27;;;;;;;;;;5051766;28;20040;-76
2022/05/29 10:55:39;;;;;;;3.17;1.40;;;;;;;;;;5062680;28;20442;-78
2022/05/29 10:58:34;;;;;;;1.27;1.10;;;;;;;;;;5070842;28;20048;-77
2022/05/29 11:04:10;;;;;;;1.40;1.10;;;;;;;;;;5063735;28;20039;-76
2022/05/29 11:06:52;;;;;;;2.10;1.08;;;;;;;;;;5062716;28;20397;-77
2022/05/29 11:09:36;;;;;;;;;;;;;;;;;;5069849;28;20443;-75
2022/05/29 11:12:08;;;;;;;2.17;1.10;;;;;;;;;;5070209;28;20002;-77
2022/05/29 11:15:04;;;;;;;1.17;1.05;;;;;;;;;;5062985;28;20501;-75
2022/05/29 11:17:38;;;;;;;1.77;0.90;;;;;;;;;;5060042;28;20490;-76
2022/05/29 11:20:36;;;;;;;2.47;0.90;;;;;;;;;;5070906;28;20068;-74
2022/05/29 11:23:17;;;;;;;2.10;0.90;;;;;;;;;;5070057;28;20032;-75
2022/05/29 11:26:01;;;;;;;1.77;1.02;;;;;;;;;;5068310;28;20048;-76
2022/05/29 11:28:44;;;;;;;1.63;1.00;;;;;;;;;;5066115;28;20207;-75
2022/05/29 11:31:17;;;;;;;1.20;0.90;;;;;;;;;;5067961;28;20032;-75
2022/05/29 11:34:13;;;;;;;1.92;1.27;;;;;;;;;;5052118;28;20517;-75
2022/05/29 11:36:51;;;;;;;1.65;1.00;;;;;;;;;;5070838;28;20358;-74
2022/05/29 11:39:29;;;;;;;2.03;0.80;;;;;;;;;;5050492;28;20040;-75
2022/05/29 11:42:06;;;;;;;1.77;0.98;;;;;;;;;;5065488;28;20442;-74
2022/05/29 11:44:41;;;;;;;1.70;0.90;;;;;;;;;;5065239;28;20072;-73
2022/05/29 11:53:24;;;;;;;4.25;1.20;;;;;;;;;;5052835;28;20508;-74
2022/05/29 11:55:50;;;;;;;1.08;1.00;;;;;;;;;;5062272;28;20028;-73
2022/05/29 11:58:20;;;;;;;3.00;1.13;;;;;;;;;;5061645;28;20029;-73
2022/05/29 12:01:02;;;;;;;2.78;1.08;;;;;;;;;;5057813;28;20032;-74
2022/05/29 12:03:54;;;;;;;1.70;1.40;;;;;;;;;;5066944;28;20485;-71
2022/05/29 12:06:41;;;;;;;2.25;1.50;;;;;;;;;;5065134;28;20024;-72
2022/05/29 12:09:18;;;;;;;2.38;1.30;;;;;;;;;;5053882;28;20040;-72
2022/05/29 12:11:49;;;;;;;3.67;1.60;;;;;;;;;;5069785;28;20020;-75
2022/05/29 12:14:22;;;;;;;2.95;1.60;;;;;;;;;;5065988;28;20036;-76
2022/05/29 12:16:51;;;;;;;2.53;1.35;;;;;;;;;;5056564;28;20025;-77
2022/05/29 12:19:25;;;;;;;1.75;1.30;;;;;;;;;;5066158;28;20052;-80
2022/05/29 12:22:02;;;;;;;2.28;1.10;;;;;;;;;;5062274;28;20024;-76
2022/05/29 12:24:32;;;;;;;1.75;1.50;;;;;;;;;;5069689;28;20097;-76
2022/05/29 12:27:08;;;;;;;2.22;1.30;;;;;;;;;;5052286;28;20039;-75
2022/05/29 12:29:40;;;;;;;1.38;1.10;;;;;;;;;;5065889;28;20094;-76
2022/05/29 12:32:13;;;;;;;1.38;1.05;;;;;;;;;;5064680;28;20016;-76
2022/05/29 12:34:51;;;;;;;2.40;1.30;;;;;;;;;;5068752;28;20041;-75
2022/05/29 12:37:34;;;;;;;1.38;1.23;;;;;;;;;;5056379;28;20039;-76
2022/05/29 12:40:23;;;;;;;3.15;1.45;;;;;;;;;;5054053;28;20024;-74
2022/05/29 12:43:24;;;;;;;1.27;1.15;;;;;;;;;;5057082;28;20025;-76
2022/05/29 12:46:10;;;;;;;1.92;1.05;;;;;;;;;;5056755;28;20028;-73
2022/05/29 12:49:15;;;;;;;1.60;1.00;;;;;;;;;;5068860;28;20056;-75
2022/05/29 12:51:55;;;;;;;1.58;0.93;;;;;;;;;;5022204;28;20205;-73
2022/05/29 12:54:42;;;;;;;1.17;0.90;;;;;;;;;;5068356;28;20040;-75
2022/05/29 12:57:39;;;;;;;1.33;1.08;;;;;;;;;;5067743;28;20052;-75
2022/05/29 13:00:10;;;;;;;1.08;0.98;;;;;;;;;;5046199;28;20020;-75
2022/05/29 13:03:03;;;;;;;1.00;0.90;;;;;;;;;;5067397;28;20116;-76
2022/05/29 13:06:04;;;;;;;3.45;1.45;;;;;;;;;;5049037;28;20029;-75
2022/05/29 13:09:19;;;;;;;1.30;1.05;;;;;;;;;;5066290;28;20032;-75
2022/05/29 13:11:52;;;;;;;1.25;1.00;;;;;;;;;;5046432;28;20037;-75
2022/05/29 13:14:20;;;;;;;0.98;0.90;;;;;;;;;;5072909;28;20452;-75
2022/05/29 13:16:58;;;;;;;1.77;0.90;;;;;;;;;;5058633;28;20389;-75
2022/05/29 13:19:26;;;;;;;1.00;0.90;;;;;;;;;;5065480;28;20028;-75
2022/05/29 13:21:59;;;;;;;1.55;0.98;;;;;;;;;;5064972;28;20028;-73
2022/05/29 13:24:29;;;;;;;1.05;0.95;;;;;;;;;;5066155;28;20028;-76
2022/05/29 13:27:13;;;;;;;2.05;1.00;;;;;;;;;;5049289;28;20031;-75
2022/05/29 13:29:46;;;;;;;0.90;0.85;;;;;;;;;;5061903;28;20137;-74
2022/05/29 13:32:14;;;;;;;2.17;1.10;;;;;;;;;;5066210;28;20063;-76
2022/05/29 13:34:50;;;;;;;2.97;1.10;;;;;;;;;;5065250;28;20028;-72
2022/05/29 13:37:37;;;;;;;1.50;0.90;;;;;;;;;;5057557;28;20056;-74
2022/05/29 13:40:06;;;;;;;3.72;1.10;;;;;;;;;;5063247;28;20462;-75
2022/05/29 13:42:48;;;;;;;3.80;1.80;;;;;;;;;;5068111;28;20024;-76
2022/05/29 13:45:23;;;;;;;2.65;1.20;;;;;;;;;;5062605;28;20029;-76
2022/05/29 13:47:52;;;;;;;2.25;1.10;;;;;;;;;;5052690;28;20429;-77
2022/05/29 13:50:49;;;;;;;1.90;0.98;;;;;;;;;;5060221;28;20627;-76
2022/05/29 13:53:27;;;;;;;0.82;0.80;;;;;;;;;;5037342;28;20048;-75
2022/05/29 13:55:54;;;;;;;1.15;0.90;;;;;;;;;;5050408;28;20049;-74
2022/05/29 14:04:22;;;;;;;1.27;1.15;;;;;;;;;;5059471;28;20106;-75
2022/05/29 14:07:13;;;;;;;1.60;1.30;;;;;;;;;;5059022;28;20409;-75
2022/05/29 14:09:43;;;;;;;1.20;1.10;;;;;;;;;;5060503;28;20028;-75
2022/05/29 14:12:34;;;;;;;1.52;1.00;;;;;;;;;;5067576;28;20278;-74
2022/05/29 14:15:31;;;;;;;1.88;1.10;;;;;;;;;;5059052;28;20021;-73
2022/05/29 14:18:01;;;;;;;1.15;1.00;;;;;;;;;;5065893;28;20028;-74
2022/05/29 14:20:59;;;;;;;2.67;1.70;;;;;;;;;;5067787;28;20028;-72
2022/05/29 14:23:46;;;;;;;2.10;0.90;;;;;;;;;;5050399;28;20143;-73
2022/05/29 14:26:49;;;;;;;0.75;0.75;;;;;;;;;;5050204;28;20078;-74
2022/05/29 14:29:23;;;;;;;;;;;;;;;;;;5062749;28;20529;-74
2022/05/29 14:32:26;;;;;;;1.10;0.80;;;;;;;;;;5042834;28;20373;-73
2022/05/29 14:35:05;;;;;;;1.00;0.85;;;;;;;;;;5055744;28;20025;-75
2022/05/29 14:37:40;;;;;;;1.23;0.90;;;;;;;;;;5057853;28;20509;-73
2022/05/29 14:40:39;;;;;;;1.17;0.80;;;;;;;;;;5067270;28;20021;-73
2022/05/29 14:43:26;;;;;;;1.20;0.82;;;;;;;;;;5066512;28;20086;-73
2022/05/29 14:46:00;;;;;;;1.63;1.40;;;;;;;;;;5058937;28;20025;-72
2022/05/29 14:48:35;;;;;;;3.28;1.00;;;;;;;;;;5058268;28;20039;-75
2022/05/29 14:51:06;;;;;;;0.80;0.80;;;;;;;;;;5066788;28;20028;-74
2022/05/29 14:53:47;;;;;;;1.42;0.95;;;;;;;;;;5064360;28;20389;-72
2022/05/29 14:56:30;;;;;;;1.00;0.80;;;;;;;;;;5057516;28;20021;-73
2022/05/29 14:59:14;;;;;;;1.17;0.90;;;;;;;;;;5054311;28;20025;-73
2022/05/29 15:01:41;;;;;;;1.00;0.82;;;;;;;;;;5066348;28;20094;-73
2022/05/29 15:04:07;;;;;;;0.90;0.90;;;;;;;;;;5056784;28;20068;-73
2022/05/29 15:12:05;;;;;;;0.93;0.82;;;;;;;;;;5056827;28;20533;-73
2022/05/29 15:14:31;;;;;;;2.13;0.82;;;;;;;;;;5068441;28;20028;-73
2022/05/29 15:16:56;;;;;;;1.20;0.90;;;;;;;;;;5069268;28;20024;-74
2022/05/29 15:25:09;;;;;;;0.70;0.70;;;;;;;;;;5063897;28;20279;-72
2022/05/29 15:27:39;;;;;;;0.90;0.90;;;;;;;;;;5062499;28;20025;-73
2022/05/29 15:30:10;;;;;;;1.90;0.93;;;;;;;;;;5063379;28;20439;-73
2022/05/29 15:32:38;;;;;;;3.08;1.10;;;;;;;;;;5070527;28;20032;-73
2022/05/29 15:35:23;;;;;;;2.30;1.10;;;;;;;;;;5064226;28;20075;-74
2022/05/29 15:38:10;;;;;;;1.38;1.10;;;;;;;;;;5062468;28;20040;-74
2022/05/29 15:41:09;;;;;;;1.33;1.15;;;;;;;;;;5059014;28;20032;-73
2022/05/29 15:44:13;;;;;;;1.55;1.10;;;;;;;;;;5070099;28;20028;-74
2022/05/29 15:46:41;;;;;;;2.45;1.10;;;;;;;;;;5067456;28;20541;-75
2022/05/29 15:49:16;;;;;;;1.70;1.27;;;;;;;;;;5064647;28;20082;-72
2022/05/29 15:52:00;;;;;;;1.83;1.00;;;;;;;;;;5066860;28;20025;-75
2022/05/29 15:54:58;;;;;;;1.45;1.15;;;;;;;;;;5067308;28;20033;-73
2022/05/29 15:57:41;;;;;;;1.48;1.00;;;;;;;;;;5068316;28;20028;-73
2022/05/29 16:00:08;;;;;;;1.27;1.02;;;;;;;;;;5061183;28;20025;-74
2022/05/29 16:02:52;;;;;;;1.70;0.90;;;;;;;;;;5059012;28;20039;-74
2022/05/29 16:05:17;;;;;;;1.15;1.05;;;;;;;;;;5055015;28;20494;-74
2022/05/29 16:07:44;;;;;;;1.45;1.00;;;;;;;;;;5065695;28;20036;-73
2022/05/29 16:10:16;;;;;;;1.15;0.90;;;;;;;;;;5053368;28;20036;-73